Terminal Aerodrome Forecast
Issued by NWS San Angelo, TX

Home | Current Version | Previous Version | Text Only | Print | Product List | Glossary On
Versions: 1 2 3 4 5 6 7 8 9 10 11 12 13 14 15 16 17
000
FTUS44 KSJT 301700
TAFSJT
TAF
KSJT 301735Z 3018/3118 34006KT P6SM SCT060
     FM302200 10006KT P6SM SCT070
     FM310600 17006KT P6SM SKC
     FM311500 18011KT P6SM SCT070=

USA.gov is the U.S. government's official web portal to all federal, state and local government web resources and services.